Thunder Bay Airport
CYQT : now visible

Airfield :











YOU CAN JOIN US ON...

 
LOGIN :

Register | Disclaimer

   EN    FR    IT 

 









Legend :    VFR   Marginal VFR   IFR   Intensive IFR   Very Intensive IFR
Visi :
Ceiling :
>= 8 km
>= 3000ft
5 to 8 km
1000 to 3000 ft
1500m to 5 km
500 to 1000 ft
800 to 1500m
200 to 500 ft
< 800m
< 200 ft
Symbols :   Thunderstorms  Fog  Heavy snow  Heavy precipitations  Wind > 20 kt






- Airport Elevation : 653 ft
- IATA code : YQT


CYQT - Thunder Bay

CURRENT METAR :
  • 050000Z 28006KT 170V290 10SM SCT090 BKN140 OVC250 23/18 A2991 RMK AC3AC3CI2 FU SH DIST E QUAD SLP130 DENSITY ALT 1800FT

EXPIRED METARs :
  • 042344Z 21008KT 8SM VCSH FEW060 BKN095 OVC250 23/16 A2990 RMK SC1AC4CI3 FU CVCTV CLD EMBD SLP128 DENSITY ALT 1800FT
  • 042315Z 26015KT 220V290 8SM -SHRA BKN080 BKN150 OVC250 26/16 A2991 RMK AC5AC2CI1 FU CVCTV CLD EMBD SLP130 DENSITY ALT 2100FT
  • 042300Z 35005KT 340V050 9SM SCT085 BKN150 OVC250 25/19 A2990 RMK AC3AC3CI2 FU CVCTV CLD EMBD SLP129 DENSITY ALT 2000FT
  • 042239Z 03004KT 330V060 8SM -SHRA BKN100 BKN250 25/19 A2990 RMK AC5CI2 FU CVCTV CLD EMBD SLP128 DENSITY ALT 2100FT
  • 042200Z 05007KT 020V110 10SM SCT085 BKN250 27/20 A2990 RMK AC3CI4 FU SLP127 DENSITY ALT 2300FT

TAF AMD TAF CYQT
Valid from the 05 at 00:00 until the 05 at 08:00 UTC


050002Z 0500/0508 VRB03KT P6SM SCT030 BKN140
TEMPO 0500/0502 VRB15G25KT 2SM TSRA BR FU BKN030CB
FM050200 25006KT P6SM BKN080
TEMPO 0502/0506 5SM FU RMK NXT FCST BY 050200Z
CZWG FIR / North America



MET'MAP, your aeronautical weather chart ! - Copyright ORBIFLY December 2007 - Disclaimer

ORBIFLY MET'MAP TEAM :

Programming & Development : Alexandra Zaïnal
Concept & original design : Baudouin d'Aumeries
Assistance for programming : Marc-Olivier Méhu
Technical & hardware support : Manuel Goepfert

Contact : metmap@orbifly.com




SOURCES & CREDITS :

   NOAA       Earth
Advisory